Time;durP1;ratioP1;P1;durP2;ratioP2;P2;SDS_P1;SDS_P2;PMS_P1;PMS_P2;Temp;Humidity;BMP_temperature;BMP_pressure;BME280_temperature;BME280_humidity;BME280_pressure;Samples;Min_cycle;Max_cycle;Signal;HPM_P1;HPM_P2
2023/11/27 00:01:26;;;;;;;22.45;13.43;;;-2.90;99.90;;;;;;5130642;28;20074;-81
2023/11/27 00:03:52;;;;;;;21.23;15.52;;;-2.90;99.90;;;;;;5091534;28;20551;-83
2023/11/27 00:06:18;;;;;;;15.20;8.60;;;-2.90;99.90;;;;;;5111596;28;20031;-82
2023/11/27 00:08:44;;;;;;;22.58;11.52;;;-2.90;99.90;;;;;;5107816;28;20090;-82
2023/11/27 00:11:10;;;;;;;20.80;11.82;;;-3.00;99.90;;;;;;5094796;28;20023;-80
2023/11/27 00:13:37;;;;;;;21.10;11.52;;;-3.00;99.90;;;;;;5090255;28;20547;-81
2023/11/27 00:16:03;;;;;;;22.88;12.50;;;-3.00;99.90;;;;;;5112351;28;20031;-81
2023/11/27 00:18:28;;;;;;;24.52;13.60;;;-3.00;99.90;;;;;;5112291;28;20042;-81
2023/11/27 00:20:54;;;;;;;21.88;12.15;;;-3.10;99.90;;;;;;5112507;28;20477;-82
2023/11/27 00:23:20;;;;;;;22.85;13.18;;;-3.10;99.90;;;;;;5112211;28;20027;-80
2023/11/27 00:25:46;;;;;;;23.83;11.50;;;-3.10;99.90;;;;;;5109942;28;20057;-80
2023/11/27 00:28:11;;;;;;;21.38;13.40;;;-3.10;99.90;;;;;;5116762;28;20704;-81
2023/11/27 00:30:37;;;;;;;19.52;9.95;;;-3.10;99.90;;;;;;5098351;28;20176;-81
2023/11/27 00:33:03;;;;;;;22.77;12.55;;;-3.10;99.90;;;;;;5116627;28;20023;-79
2023/11/27 00:35:29;;;;;;;92.82;20.77;;;-3.10;99.90;;;;;;5097546;28;20469;-81
2023/11/27 00:37:55;;;;;;;20.67;12.27;;;-3.20;99.90;;;;;;5117566;28;20027;-81
2023/11/27 00:40:20;;;;;;;19.38;10.50;;;-3.20;99.90;;;;;;5117189;28;20099;-80
2023/11/27 00:42:46;;;;;;;20.40;11.07;;;-3.30;99.90;;;;;;5117034;28;20438;-81
2023/11/27 00:45:13;;;;;;;23.55;13.00;;;-3.30;99.90;;;;;;5116555;28;20118;-80
2023/11/27 00:47:39;;;;;;;26.93;17.97;;;-3.20;99.90;;;;;;5116579;28;20023;-80
2023/11/27 00:50:05;;;;;;;17.50;9.02;;;-3.30;99.90;;;;;;5116069;27;20278;-80
2023/11/27 00:52:32;;;;;;;25.70;12.40;;;-3.30;99.90;;;;;;5116383;28;20023;-81
2023/11/27 00:54:58;;;;;;;25.13;13.52;;;-3.30;99.90;;;;;;5116379;28;20016;-81
2023/11/27 00:57:24;;;;;;;16.42;10.25;;;-3.30;99.90;;;;;;5116517;28;20033;-83
2023/11/27 00:59:49;;;;;;;19.17;11.93;;;-3.30;99.90;;;;;;5116752;28;20059;-81
2023/11/27 01:02:15;;;;;;;18.48;10.35;;;-3.30;99.90;;;;;;5098481;28;20016;-82
2023/11/27 01:04:42;;;;;;;24.85;11.65;;;-3.30;99.90;;;;;;5101060;28;20027;-83
2023/11/27 01:07:09;;;;;;;16.38;11.13;;;-3.30;99.90;;;;;;5123179;28;20149;-81
2023/11/27 01:09:37;;;;;;;19.13;11.38;;;-3.30;99.90;;;;;;5117058;28;20451;-83
2023/11/27 01:12:03;;;;;;;21.77;12.02;;;-3.30;99.90;;;;;;5098232;28;20370;-81
2023/11/27 01:14:29;;;;;;;16.10;8.02;;;-3.20;99.90;;;;;;5115753;28;20011;-83
2023/11/27 01:16:56;;;;;;;23.02;11.13;;;-3.20;99.90;;;;;;5121214;28;20015;-82
2023/11/27 01:19:22;;;;;;;21.80;12.85;;;-3.20;99.90;;;;;;5104729;28;20111;-83
2023/11/27 01:21:48;;;;;;;18.87;15.07;;;-3.20;99.90;;;;;;5116506;28;20040;-83
2023/11/27 01:24:15;;;;;;;20.50;10.90;;;-3.20;99.90;;;;;;5099052;28;20768;-82
2023/11/27 01:26:41;;;;;;;16.90;12.02;;;-3.20;99.90;;;;;;5116266;28;20393;-82
2023/11/27 01:29:07;;;;;;;9.38;6.57;;;-3.20;99.90;;;;;;5117292;28;20031;-83
2023/11/27 01:31:33;;;;;;;17.50;9.32;;;-3.20;99.90;;;;;;5116813;28;20016;-83
2023/11/27 01:33:59;;;;;;;18.63;10.02;;;-3.20;99.90;;;;;;5116027;28;20023;-82
2023/11/27 01:36:25;;;;;;;16.90;9.20;;;-3.20;99.90;;;;;;5116176;28;20082;-82
2023/11/27 01:38:50;;;;;;;18.05;10.15;;;-3.30;99.90;;;;;;5098139;28;20023;-83
2023/11/27 01:41:16;;;;;;;15.68;10.90;;;-3.30;99.90;;;;;;5115892;28;20027;-82
2023/11/27 01:43:42;;;;;;;20.38;10.30;;;-3.20;99.90;;;;;;5114461;28;20426;-83
2023/11/27 01:46:20;;;;;;;18.65;9.93;;;-3.30;99.90;;;;;;5091623;28;20031;-82
2023/11/27 01:48:46;;;;;;;19.27;10.07;;;-3.30;99.90;;;;;;5108148;28;20016;-80
2023/11/27 01:51:12;;;;;;;16.15;7.35;;;-3.30;99.90;;;;;;5097491;28;20096;-81
2023/11/27 01:53:38;;;;;;;16.35;8.95;;;-3.30;99.90;;;;;;5115313;28;20455;-81
2023/11/27 01:56:05;;;;;;;19.65;10.40;;;-3.20;99.90;;;;;;5115037;28;20407;-82
2023/11/27 01:58:31;;;;;;;14.93;8.23;;;-3.20;99.90;;;;;;5115207;28;20124;-81
2023/11/27 02:00:57;;;;;;;9.98;8.48;;;-3.20;99.90;;;;;;5114087;27;20055;-82
2023/11/27 02:03:23;;;;;;;14.73;8.95;;;-3.20;99.90;;;;;;5109899;28;20047;-81
2023/11/27 02:05:49;;;;;;;19.83;9.88;;;-3.20;99.90;;;;;;5114956;28;20059;-82
2023/11/27 02:08:15;;;;;;;14.15;8.30;;;-3.20;99.90;;;;;;5114977;28;20027;-80
2023/11/27 02:10:40;;;;;;;16.52;8.13;;;-3.20;99.90;;;;;;5096506;28;20472;-82
2023/11/27 02:13:06;;;;;;;16.80;9.02;;;-3.20;99.90;;;;;;5114937;28;20405;-82
2023/11/27 02:15:32;;;;;;;13.43;9.55;;;-3.20;99.90;;;;;;5105396;28;20020;-82
2023/11/27 02:17:58;;;;;;;14.18;8.77;;;-3.20;99.90;;;;;;5108925;28;20023;-82
2023/11/27 02:20:23;;;;;;;15.15;9.90;;;-3.20;99.90;;;;;;5107276;28;20052;-81
2023/11/27 02:22:49;;;;;;;12.23;7.28;;;-3.10;99.90;;;;;;5107777;28;20051;-81
2023/11/27 02:25:15;;;;;;;16.77;9.30;;;-3.10;99.90;;;;;;5116123;28;20019;-81
2023/11/27 02:27:41;;;;;;;11.38;7.28;;;-3.10;99.90;;;;;;5114792;28;20507;-81
2023/11/27 02:30:07;;;;;;;11.77;9.48;;;-3.00;99.90;;;;;;5115432;28;20020;-81
2023/11/27 02:32:33;;;;;;;10.32;8.10;;;-3.00;99.90;;;;;;5109707;28;20020;-82
2023/11/27 02:34:59;;;;;;;11.95;7.80;;;-3.00;99.90;;;;;;5093967;28;20385;-80
2023/11/27 02:37:25;;;;;;;11.35;7.28;;;-3.00;99.90;;;;;;5081641;28;20020;-82
2023/11/27 02:39:51;;;;;;;16.58;7.68;;;-3.00;99.90;;;;;;5114971;28;20768;-82
2023/11/27 02:42:16;;;;;;;14.40;7.47;;;-3.10;99.90;;;;;;5101063;28;20107;-84
2023/11/27 02:44:42;;;;;;;13.65;9.63;;;-3.10;99.90;;;;;;5119689;28;20040;-81
2023/11/27 02:47:08;;;;;;;12.75;8.32;;;-3.10;99.90;;;;;;5105651;28;20540;-81
2023/11/27 02:49:34;;;;;;;12.27;7.80;;;-3.10;99.90;;;;;;5117116;28;20038;-82
2023/11/27 02:51:59;;;;;;;14.93;9.07;;;-3.00;99.90;;;;;;5123356;28;20108;-81
2023/11/27 02:54:26;;;;;;;12.85;8.60;;;-3.00;99.90;;;;;;5116272;28;20019;-81
2023/11/27 02:56:53;;;;;;;11.32;6.78;;;-2.90;99.90;;;;;;5114411;28;20389;-81
2023/11/27 02:59:19;;;;;;;11.18;6.68;;;-2.90;99.90;;;;;;5122686;28;20030;-80
2023/11/27 03:01:45;;;;;;;16.95;8.57;;;-2.80;99.90;;;;;;5125443;28;20658;-81
2023/11/27 03:04:11;;;;;;;14.00;8.50;;;-2.80;99.90;;;;;;5114824;28;20040;-81
2023/11/27 03:06:37;;;;;;;9.45;6.65;;;-2.80;99.90;;;;;;5096245;28;20043;-81
2023/11/27 03:09:04;;;;;;;17.13;7.95;;;-2.80;99.90;;;;;;5114469;27;20020;-81
2023/11/27 03:11:30;;;;;;;12.60;5.13;;;-2.80;99.90;;;;;;5110676;28;20107;-82
2023/11/27 03:13:56;;;;;;;11.80;6.53;;;-2.70;99.90;;;;;;5103859;28;20073;-81
2023/11/27 03:16:22;;;;;;;12.02;7.88;;;-2.70;99.90;;;;;;5120920;28;20012;-82
2023/11/27 03:18:47;;;;;;;14.57;6.97;;;-2.60;99.90;;;;;;5137973;28;20024;-81
2023/11/27 03:21:22;;;;;;;12.27;7.18;;;-2.60;99.90;;;;;;5115747;28;20016;-82
2023/11/27 03:23:48;;;;;;;16.25;8.85;;;-2.60;99.90;;;;;;5076169;28;20028;-84
2023/11/27 03:26:14;;;;;;;10.73;6.88;;;-2.50;99.90;;;;;;5110031;28;20036;-82
2023/11/27 03:28:40;;;;;;;12.02;5.95;;;-2.50;99.90;;;;;;5113985;28;20022;-81
2023/11/27 03:31:06;;;;;;;10.52;6.25;;;-2.40;99.90;;;;;;5114118;28;20803;-82
2023/11/27 03:33:32;;;;;;;8.60;6.43;;;-2.40;99.90;;;;;;5081732;28;20054;-82
2023/11/27 03:35:58;;;;;;;11.98;5.90;;;-2.40;99.90;;;;;;5113325;28;20073;-81
2023/11/27 03:38:24;;;;;;;12.80;7.87;;;-2.40;99.90;;;;;;5098355;28;20441;-82
2023/11/27 03:40:50;;;;;;;7.53;5.05;;;-2.30;99.90;;;;;;5117919;28;20027;-81
2023/11/27 03:43:16;;;;;;;10.43;4.95;;;-2.30;99.90;;;;;;5127396;28;20023;-82
2023/11/27 03:45:42;;;;;;;8.52;6.05;;;-2.20;99.90;;;;;;5124478;28;20031;-82
2023/11/27 03:48:08;;;;;;;10.82;6.80;;;-2.10;99.90;;;;;;5123220;28;20357;-82
2023/11/27 03:50:34;;;;;;;9.77;6.60;;;-2.00;99.90;;;;;;5116496;28;20024;-82
2023/11/27 03:53:00;;;;;;;8.60;5.60;;;-2.00;99.90;;;;;;5094790;28;20049;-82
2023/11/27 03:55:25;;;;;;;9.43;5.35;;;-1.90;99.90;;;;;;5113396;28;20080;-81
2023/11/27 03:57:51;;;;;;;7.80;4.82;;;-1.90;99.90;;;;;;5112521;28;20392;-81
2023/11/27 04:00:18;;;;;;;9.73;5.82;;;-1.80;99.90;;;;;;5113452;28;20085;-82
2023/11/27 04:02:44;;;;;;;8.68;5.32;;;-1.70;99.90;;;;;;5113948;28;20024;-82
2023/11/27 04:05:10;;;;;;;10.38;5.75;;;-1.70;99.90;;;;;;5096117;28;20027;-82
2023/11/27 04:07:36;;;;;;;10.38;5.40;;;-1.60;99.90;;;;;;5106164;28;20035;-82
2023/11/27 04:10:02;;;;;;;8.00;4.85;;;-1.50;99.90;;;;;;5115046;28;20417;-82
2023/11/27 04:12:32;;;;;;;6.35;4.50;;;-1.50;99.90;;;;;;5113856;28;20066;-82
2023/11/27 04:14:59;;;;;;;8.98;3.80;;;-1.40;99.90;;;;;;5093752;28;20020;-83
2023/11/27 04:17:24;;;;;;;6.63;3.95;;;-1.30;99.90;;;;;;5103594;28;20091;-82
2023/11/27 04:19:51;;;;;;;12.80;6.97;;;-1.30;99.90;;;;;;5112757;28;20065;-81
2023/11/27 04:22:17;;;;;;;7.50;4.88;;;-1.30;99.90;;;;;;5116964;28;20057;-82
2023/11/27 04:24:43;;;;;;;8.88;3.80;;;-1.20;99.90;;;;;;5101968;28;20477;-82
2023/11/27 04:27:09;;;;;;;7.90;4.63;;;-1.10;99.90;;;;;;5112968;28;20034;-83
2023/11/27 04:29:35;;;;;;;7.78;4.32;;;-1.00;99.90;;;;;;5095155;28;20028;-82
2023/11/27 04:32:01;;;;;;;8.35;3.78;;;-1.00;99.90;;;;;;5097620;28;20011;-83
2023/11/27 04:34:26;;;;;;;6.82;3.92;;;-0.90;99.90;;;;;;5111068;28;20089;-84
2023/11/27 04:36:52;;;;;;;5.47;3.65;;;-0.90;99.90;;;;;;5121657;28;20051;-83
2023/11/27 04:39:18;;;;;;;6.68;4.38;;;-0.90;99.90;;;;;;5119060;28;20037;-82
2023/11/27 04:41:44;;;;;;;4.30;3.90;;;-0.90;99.90;;;;;;5113706;28;20518;-84
2023/11/27 04:44:10;;;;;;;4.60;4.00;;;-0.80;99.90;;;;;;5110030;28;20095;-83
2023/11/27 04:46:36;;;;;;;6.43;4.03;;;-0.80;99.90;;;;;;5083781;28;20476;-82
2023/11/27 04:49:02;;;;;;;10.95;6.65;;;-0.80;99.90;;;;;;5099179;28;20027;-84
2023/11/27 04:51:30;;;;;;;7.60;4.32;;;-0.70;99.90;;;;;;5095200;28;20032;-85
2023/11/27 04:53:56;;;;;;;5.63;3.13;;;-0.70;99.90;;;;;;5113013;28;20024;-83
2023/11/27 04:56:22;;;;;;;7.28;4.45;;;-0.70;99.90;;;;;;5094238;28;20027;-84
2023/11/27 04:58:48;;;;;;;5.20;3.75;;;-0.60;99.90;;;;;;5101351;28;20024;-83
2023/11/27 05:01:14;;;;;;;9.02;4.10;;;-0.60;99.90;;;;;;5095761;28;20035;-82
2023/11/27 05:03:39;;;;;;;5.25;3.33;;;-0.60;99.90;;;;;;5112503;28;20503;-83
2023/11/27 05:06:05;;;;;;;7.88;4.68;;;-0.50;99.90;;;;;;5092829;28;20088;-83
2023/11/27 05:08:31;;;;;;;8.55;4.13;;;-0.50;99.90;;;;;;5112436;28;20039;-85
2023/11/27 05:10:57;;;;;;;8.93;3.90;;;-0.50;99.90;;;;;;5094403;28;20341;-85
2023/11/27 05:13:23;;;;;;;5.68;4.00;;;-0.50;99.90;;;;;;5115913;28;20091;-81
2023/11/27 05:15:49;;;;;;;9.18;7.13;;;-0.40;99.90;;;;;;5117052;28;20457;-83
2023/11/27 05:18:14;;;;;;;7.45;4.00;;;-0.40;99.90;;;;;;5103147;28;20099;-82
2023/11/27 05:20:42;;;;;;;8.68;4.60;;;-0.40;99.90;;;;;;5097698;28;20024;-83
2023/11/27 05:23:08;;;;;;;7.97;4.95;;;-0.30;99.90;;;;;;5101853;28;20024;-82
2023/11/27 05:25:33;;;;;;;6.32;4.22;;;-0.30;99.90;;;;;;5095195;28;20024;-83
2023/11/27 05:27:59;;;;;;;6.38;4.60;;;-0.20;99.90;;;;;;5116151;28;20076;-82
2023/11/27 05:30:25;;;;;;;6.38;3.75;;;-0.20;99.90;;;;;;5099151;28;20024;-84
2023/11/27 05:32:51;;;;;;;8.98;4.13;;;-0.10;99.90;;;;;;5113728;28;20023;-82
2023/11/27 05:35:17;;;;;;;7.75;4.28;;;-0.10;99.90;;;;;;5118839;28;20049;-82
2023/11/27 05:37:43;;;;;;;9.23;4.45;;;-0.10;99.90;;;;;;5108466;27;20105;-85
2023/11/27 05:40:10;;;;;;;4.63;2.88;;;-0.10;99.90;;;;;;5091804;28;20024;-83
2023/11/27 05:42:39;;;;;;;10.18;3.88;;;-0.10;99.90;;;;;;5118003;28;20455;-85
2023/11/27 05:45:12;;;;;;;7.05;4.80;;;-0.10;99.90;;;;;;5094077;28;20040;-84
2023/11/27 05:47:41;;;;;;;7.38;5.18;;;-0.10;99.90;;;;;;5084832;28;20431;-84
2023/11/27 05:50:12;;;;;;;5.18;4.05;;;0.00;99.90;;;;;;5085161;28;20075;-85
2023/11/27 05:52:38;;;;;;;6.20;4.78;;;0.00;99.90;;;;;;5075283;28;20051;-84
2023/11/27 05:55:04;;;;;;;8.48;5.13;;;0.00;99.90;;;;;;5103799;28;20031;-85
2023/11/27 05:57:30;;;;;;;9.60;4.70;;;0.00;99.90;;;;;;5101796;28;20031;-84
2023/11/27 05:59:56;;;;;;;12.00;5.30;;;0.10;99.90;;;;;;5097886;28;20717;-86
2023/11/27 06:02:22;;;;;;;6.68;5.32;;;0.10;99.90;;;;;;5089633;28;20023;-84
2023/11/27 06:04:47;;;;;;;6.82;4.75;;;0.10;99.90;;;;;;5066826;28;20482;-84
2023/11/27 06:07:14;;;;;;;10.13;5.55;;;0.10;99.90;;;;;;5069598;28;20059;-83
2023/11/27 06:09:39;;;;;;;6.45;4.78;;;0.10;99.90;;;;;;5094895;28;20035;-85
2023/11/27 06:12:06;;;;;;;8.18;4.35;;;0.20;99.90;;;;;;5067292;28;20024;-86
2023/11/27 06:14:32;;;;;;;6.32;4.82;;;0.20;99.90;;;;;;5091001;28;20035;-86
2023/11/27 06:16:59;;;;;;;17.40;7.18;;;0.20;99.90;;;;;;5088543;28;20024;-84
2023/11/27 06:19:25;;;;;;;10.02;4.90;;;0.20;99.90;;;;;;5087238;28;20024;-83
2023/11/27 06:21:50;;;;;;;6.55;5.32;;;0.20;99.90;;;;;;5119439;28;20031;-83
2023/11/27 06:24:17;;;;;;;5.28;4.43;;;0.30;99.90;;;;;;5111232;28;20096;-82
2023/11/27 06:26:42;;;;;;;9.23;5.50;;;0.30;99.90;;;;;;5095887;28;20028;-83
2023/11/27 06:29:08;;;;;;;8.10;4.85;;;0.30;99.90;;;;;;5094242;28;20012;-83
2023/11/27 06:31:35;;;;;;;7.68;5.22;;;0.30;99.90;;;;;;5092513;28;20028;-84
2023/11/27 06:34:01;;;;;;;11.30;5.93;;;0.30;99.90;;;;;;5099561;28;20067;-83
2023/11/27 06:36:27;;;;;;;11.77;6.68;;;0.30;99.90;;;;;;5108578;28;20028;-83
2023/11/27 06:38:52;;;;;;;12.15;7.22;;;0.30;99.90;;;;;;5113695;28;20016;-84
2023/11/27 06:41:18;;;;;;;8.95;6.15;;;0.30;99.90;;;;;;5089341;28;20119;-85
2023/11/27 06:43:45;;;;;;;9.52;6.45;;;0.30;99.90;;;;;;5094993;28;20058;-84
2023/11/27 06:46:16;;;;;;;14.70;6.70;;;0.30;99.90;;;;;;5076458;28;20481;-84
2023/11/27 06:48:50;;;;;;;19.75;7.60;;;0.30;99.90;;;;;;5094737;28;20261;-84
2023/11/27 06:51:20;;;;;;;10.25;6.78;;;0.30;99.90;;;;;;5071034;28;20031;-84
2023/11/27 06:53:49;;;;;;;10.15;6.85;;;0.30;99.90;;;;;;5067500;28;20119;-84
2023/11/27 06:56:20;;;;;;;10.98;6.18;;;0.30;99.90;;;;;;5092494;28;20020;-83
2023/11/27 06:58:51;;;;;;;6.38;4.32;;;0.30;99.90;;;;;;5093972;28;20099;-83
2023/11/27 07:01:21;;;;;;;7.50;5.28;;;0.30;99.90;;;;;;5075631;28;20130;-85
2023/11/27 07:03:50;;;;;;;10.55;6.07;;;0.30;99.90;;;;;;5074954;28;20036;-83
2023/11/27 07:06:38;;;;;;;6.07;5.43;;;0.30;99.90;;;;;;5073817;28;20044;-87
2023/11/27 07:09:12;;;;;;;12.20;8.05;;;0.40;99.90;;;;;;5077830;28;20028;-88
2023/11/27 07:11:40;;;;;;;8.88;6.22;;;0.30;99.90;;;;;;5075389;28;20028;-88
2023/11/27 07:14:12;;;;;;;9.95;6.72;;;0.30;99.90;;;;;;5075225;28;20081;-86
2023/11/27 07:16:56;;;;;;;9.70;7.32;;;0.40;99.90;;;;;;5072945;28;20418;-88
2023/11/27 07:19:25;;;;;;;9.63;7.63;;;0.40;99.90;;;;;;5087451;28;20032;-89
2023/11/27 07:22:04;;;;;;;;;;;;;;;;;;;;;
2023/11/27 07:24:51;;;;;;;8.43;6.78;;;0.40;99.90;;;;;;5097091;28;20111;-91
2023/11/27 07:27:20;;;;;;;9.07;5.72;;;0.40;99.90;;;;;;5085129;28;20063;-90
2023/11/27 07:29:53;;;;;;;7.95;6.65;;;0.40;99.90;;;;;;5104333;28;20070;-90
2023/11/27 07:32:19;;;;;;;11.48;6.88;;;0.40;99.90;;;;;;5078479;28;20429;-89
2023/11/27 07:34:47;;;;;;;11.98;7.00;;;0.40;99.90;;;;;;5096077;28;20027;-90
2023/11/27 07:37:22;;;;;;;15.15;8.50;;;0.40;99.90;;;;;;5081713;28;20088;-89
2023/11/27 07:39:59;;;;;;;12.93;7.50;;;0.40;99.90;;;;;;5077137;28;20044;-87
2023/11/27 07:42:26;;;;;;;13.95;9.75;;;0.40;99.90;;;;;;5096378;28;20029;-90
2023/11/27 07:45:12;;;;;;;8.75;6.57;;;0.40;99.90;;;;;;5079385;28;20078;-89
2023/11/27 07:48:00;;;;;;;13.73;8.68;;;0.40;99.90;;;;;;5093152;28;20028;-89
2023/11/27 07:50:29;;;;;;;11.38;8.38;;;0.40;99.90;;;;;;5090434;28;20051;-90
2023/11/27 07:52:55;;;;;;;12.20;7.32;;;0.50;99.90;;;;;;5085395;28;20020;-89
2023/11/27 07:55:21;;;;;;;15.43;8.45;;;0.50;99.90;;;;;;5083306;28;20016;-89
2023/11/27 07:57:47;;;;;;;9.75;7.32;;;0.50;99.90;;;;;;5091556;28;20563;-90
2023/11/27 08:00:16;;;;;;;13.68;8.20;;;0.50;99.90;;;;;;5088565;28;20024;-88
2023/11/27 08:02:47;;;;;;;18.92;11.52;;;0.50;99.90;;;;;;5071086;28;20031;-88
2023/11/27 08:05:17;;;;;;;16.77;8.93;;;0.50;99.90;;;;;;5077333;28;20012;-89
2023/11/27 08:07:43;;;;;;;17.52;9.57;;;0.50;99.90;;;;;;5078198;28;20040;-89
2023/11/27 08:10:09;;;;;;;9.50;6.18;;;0.60;99.90;;;;;;5099634;28;20008;-87
2023/11/27 08:12:38;;;;;;;14.23;8.32;;;0.60;99.90;;;;;;5089354;28;20028;-88
2023/11/27 08:15:07;;;;;;;13.70;8.85;;;0.60;99.90;;;;;;5106335;28;20024;-81
2023/11/27 08:17:33;;;;;;;19.48;9.45;;;0.60;99.90;;;;;;5093482;28;20153;-85
2023/11/27 08:20:00;;;;;;;17.35;9.43;;;0.60;99.90;;;;;;5092798;28;20529;-83
2023/11/27 08:22:26;;;;;;;15.63;10.52;;;0.60;99.90;;;;;;5092997;28;20017;-84
2023/11/27 08:24:52;;;;;;;15.30;9.60;;;0.60;99.90;;;;;;5092059;28;20167;-84
2023/11/27 08:27:24;;;;;;;11.50;8.23;;;0.60;99.90;;;;;;5092543;28;20032;-84
2023/11/27 08:29:50;;;;;;;20.13;11.13;;;0.60;99.90;;;;;;5074833;28;20599;-84
2023/11/27 08:32:16;;;;;;;41.35;18.70;;;0.70;99.90;;;;;;5089216;28;20056;-84
2023/11/27 08:34:42;;;;;;;20.35;11.95;;;0.60;99.90;;;;;;5080057;28;20025;-84
2023/11/27 08:37:09;;;;;;;19.40;12.27;;;0.70;99.90;;;;;;5067284;28;20442;-82
2023/11/27 08:39:35;;;;;;;;;;;0.70;99.90;;;;;;5075586;28;20488;-83
2023/11/27 08:42:01;;;;;;;22.92;14.25;;;0.70;99.90;;;;;;5088778;28;19908;-84
2023/11/27 08:44:27;;;;;;;19.15;13.23;;;0.70;99.90;;;;;;5076497;28;20052;-87
2023/11/27 08:46:53;;;;;;;21.05;13.60;;;0.80;99.90;;;;;;5095612;28;20129;-85
2023/11/27 08:49:19;;;;;;;22.75;12.85;;;0.70;99.90;;;;;;5079905;28;20024;-85
2023/11/27 08:51:45;;;;;;;21.30;13.52;;;0.70;99.90;;;;;;5096536;28;20431;-83
2023/11/27 08:54:11;;;;;;;24.27;14.32;;;0.70;99.90;;;;;;5096256;28;20553;-83
2023/11/27 08:56:41;;;;;;;22.38;15.75;;;0.70;99.90;;;;;;5096605;28;20068;-85
2023/11/27 08:59:07;;;;;;;24.23;15.23;;;0.70;99.90;;;;;;5097783;28;20053;-84
2023/11/27 09:01:33;;;;;;;25.42;15.27;;;0.70;99.90;;;;;;5100175;28;20063;-82
2023/11/27 09:03:59;;;;;;;25.10;16.20;;;0.70;99.90;;;;;;5098497;28;20070;-83
2023/11/27 09:06:25;;;;;;;33.35;15.93;;;0.80;99.90;;;;;;5097147;28;20031;-84
2023/11/27 09:08:52;;;;;;;33.13;16.48;;;0.80;99.90;;;;;;5101065;28;20020;-81
2023/11/27 09:11:18;;;;;;;26.52;17.27;;;0.80;99.90;;;;;;5111813;28;20501;-83
2023/11/27 09:13:44;;;;;;;26.52;15.02;;;0.90;99.90;;;;;;5079677;28;20125;-82
2023/11/27 09:16:10;;;;;;;33.88;20.20;;;0.90;99.90;;;;;;5079461;28;20102;-82
2023/11/27 09:18:36;;;;;;;28.88;17.70;;;0.90;99.90;;;;;;5068545;28;20020;-83
2023/11/27 09:21:03;;;;;;;37.47;20.27;;;0.90;99.90;;;;;;5077699;28;20035;-84
2023/11/27 09:23:29;;;;;;;34.28;19.90;;;0.90;99.90;;;;;;5073599;28;20025;-86
2023/11/27 09:25:55;;;;;;;42.45;21.50;;;0.90;99.90;;;;;;5090989;28;20035;-88
2023/11/27 09:28:22;;;;;;;33.58;21.42;;;0.90;99.90;;;;;;5078082;28;20033;-84
2023/11/27 09:30:49;;;;;;;33.05;18.58;;;0.90;99.90;;;;;;5084723;28;20024;-87
2023/11/27 09:33:15;;;;;;;32.43;20.30;;;1.00;99.90;;;;;;5102645;28;20017;-85
2023/11/27 09:35:41;;;;;;;30.52;17.17;;;1.00;99.90;;;;;;5093634;28;20260;-88
2023/11/27 09:38:08;;;;;;;32.80;19.58;;;1.00;99.90;;;;;;5102033;28;20489;-87
2023/11/27 09:40:42;;;;;;;25.02;18.83;;;1.00;99.90;;;;;;5099665;28;20061;-87
2023/11/27 09:43:08;;;;;;;26.30;17.10;;;1.10;99.90;;;;;;5092955;28;20090;-84
2023/11/27 09:45:36;;;;;;;35.30;20.33;;;1.10;99.90;;;;;;5128569;28;20034;-85
2023/11/27 09:48:05;;;;;;;33.40;18.60;;;1.10;99.90;;;;;;5129693;28;20023;-85
2023/11/27 09:50:31;;;;;;;31.80;19.13;;;1.10;99.90;;;;;;5124673;28;20038;-85
2023/11/27 09:53:08;;;;;;;31.55;20.00;;;1.10;99.90;;;;;;5121029;28;20035;-83
2023/11/27 09:55:38;;;;;;;29.70;20.00;;;1.20;99.90;;;;;;5112065;28;20035;-87
2023/11/27 09:58:15;;;;;;;41.65;18.40;;;1.20;99.90;;;;;;5121008;28;20046;-84
2023/11/27 10:00:42;;;;;;;32.08;20.15;;;1.20;99.90;;;;;;5104845;28;20469;-87
2023/11/27 10:03:08;;;;;;;25.63;17.58;;;1.20;99.90;;;;;;5099848;28;20036;-82
2023/11/27 10:05:34;;;;;;;34.17;19.48;;;1.20;99.90;;;;;;5114123;28;20019;-82
2023/11/27 10:08:03;;;;;;;25.05;16.83;;;1.20;99.90;;;;;;5115191;28;20024;-84
2023/11/27 10:10:29;;;;;;;29.52;19.02;;;1.30;99.90;;;;;;5114925;28;20053;-83
2023/11/27 10:12:59;;;;;;;34.25;21.17;;;1.30;99.90;;;;;;5096395;28;20495;-83
2023/11/27 10:15:30;;;;;;;30.05;19.75;;;1.30;99.90;;;;;;5114712;28;20021;-81
2023/11/27 10:17:57;;;;;;;38.80;19.70;;;1.30;99.90;;;;;;5114460;28;20062;-80
2023/11/27 10:20:24;;;;;;;30.70;19.38;;;1.30;99.90;;;;;;5114306;28;20015;-80
2023/11/27 10:22:52;;;;;;;30.52;20.17;;;1.40;99.90;;;;;;5114248;28;20035;-81
2023/11/27 10:25:18;;;;;;;;;;;1.40;99.90;;;;;;5096625;28;20032;-80
2023/11/27 10:27:43;;;;;;;30.40;17.63;;;1.40;99.90;;;;;;5096078;28;19929;-80
2023/11/27 10:30:21;;;;;;;27.83;18.25;;;1.40;99.90;;;;;;5114208;28;20385;-78
2023/11/27 10:32:49;;;;;;;30.30;18.73;;;1.40;99.90;;;;;;5107113;28;20549;-78
2023/11/27 10:35:20;;;;;;;34.03;18.58;;;1.40;99.90;;;;;;5109395;28;20037;-78
2023/11/27 10:37:49;;;;;;;33.88;18.75;;;1.50;99.90;;;;;;5081413;28;20031;-79
2023/11/27 10:40:16;;;;;;;42.88;22.25;;;1.50;99.90;;;;;;5113852;28;20012;-77
2023/11/27 10:42:50;;;;;;;34.25;19.73;;;1.50;99.90;;;;;;5113575;28;20484;-78
2023/11/27 10:45:23;;;;;;;33.17;20.30;;;1.50;99.90;;;;;;5102761;28;20078;-79
2023/11/27 10:47:51;;;;;;;31.40;18.90;;;1.60;99.90;;;;;;5081437;28;20052;-82
2023/11/27 10:50:18;;;;;;;36.28;22.40;;;1.60;99.90;;;;;;5114009;28;20032;-81
2023/11/27 10:52:48;;;;;;;33.30;21.45;;;1.60;99.90;;;;;;5113711;28;20062;-83
2023/11/27 10:55:18;;;;;;;34.13;19.38;;;1.60;99.90;;;;;;5113917;28;20050;-82
2023/11/27 10:57:46;;;;;;;29.45;17.33;;;1.60;99.90;;;;;;5095113;28;20042;-82
2023/11/27 11:00:18;;;;;;;;;;;1.70;99.90;;;;;;5103182;28;20027;-84
2023/11/27 11:02:50;;;;;;;34.60;20.98;;;1.70;99.90;;;;;;5097384;28;19903;-85
2023/11/27 11:05:26;;;;;;;34.75;20.25;;;1.70;99.90;;;;;;5085757;28;20495;-83
2023/11/27 11:07:55;;;;;;;28.73;20.58;;;1.70;99.90;;;;;;5110365;28;20085;-84
2023/11/27 11:10:26;;;;;;;33.35;21.38;;;1.70;99.90;;;;;;5113860;28;20192;-84
2023/11/27 11:12:55;;;;;;;30.80;21.77;;;1.70;99.90;;;;;;5095606;28;20088;-82
2023/11/27 11:15:34;;;;;;;31.83;20.00;;;1.70;99.90;;;;;;5104877;28;20031;-80
2023/11/27 11:18:11;;;;;;;32.22;20.17;;;1.70;99.90;;;;;;5108642;28;20035;-80
2023/11/27 11:20:46;;;;;;;47.20;23.52;;;1.70;99.90;;;;;;5110486;28;20059;-82
2023/11/27 11:23:32;;;;;;;37.78;22.40;;;1.70;99.90;;;;;;5112942;28;20028;-80
2023/11/27 11:26:22;;;;;;;31.55;20.38;;;1.80;99.90;;;;;;5091124;28;20024;-81
2023/11/27 11:28:55;;;;;;;31.63;19.65;;;1.90;99.90;;;;;;5099053;28;20396;-82
2023/11/27 11:31:23;;;;;;;27.92;17.98;;;1.80;99.90;;;;;;5113066;28;20182;-83
2023/11/27 11:33:49;;;;;;;33.10;19.15;;;1.90;99.90;;;;;;5080740;28;20439;-81
2023/11/27 11:36:32;;;;;;;24.33;16.70;;;1.90;99.90;;;;;;5113120;28;20488;-81
2023/11/27 11:38:58;;;;;;;25.88;16.65;;;1.90;99.90;;;;;;5109267;28;20104;-83
2023/11/27 11:41:28;;;;;;;23.67;15.07;;;2.00;99.90;;;;;;5110992;28;20102;-84
2023/11/27 11:44:01;;;;;;;25.42;17.05;;;2.00;99.90;;;;;;5092840;28;20519;-83
2023/11/27 11:46:27;;;;;;;27.25;15.82;;;2.00;99.90;;;;;;5115159;28;20020;-80
2023/11/27 11:48:57;;;;;;;23.15;12.82;;;2.10;99.90;;;;;;5106766;28;20135;-81
2023/11/27 11:51:25;;;;;;;18.50;12.85;;;2.00;99.90;;;;;;5098876;28;20019;-82
2023/11/27 11:53:52;;;;;;;19.08;12.77;;;2.00;99.90;;;;;;5106498;28;20687;-82
2023/11/27 11:56:27;;;;;;;20.83;12.40;;;2.10;99.90;;;;;;5090348;28;20123;-81
2023/11/27 11:58:57;;;;;;;21.13;13.82;;;2.10;99.90;;;;;;5093961;28;20122;-81
2023/11/27 12:01:32;;;;;;;20.83;13.05;;;2.10;99.90;;;;;;5084557;28;20024;-80
2023/11/27 12:04:08;;;;;;;17.40;13.20;;;2.10;99.90;;;;;;5093882;28;20018;-80
2023/11/27 12:06:34;;;;;;;18.30;13.63;;;2.10;99.90;;;;;;5099628;28;20027;-81
2023/11/27 12:09:03;;;;;;;14.98;10.60;;;2.10;99.90;;;;;;5119872;28;20042;-83
2023/11/27 12:11:31;;;;;;;19.75;11.48;;;2.10;99.90;;;;;;5113226;28;20023;-81
2023/11/27 12:13:57;;;;;;;;;;;2.10;99.90;;;;;;5113931;28;20032;-83
2023/11/27 12:16:23;;;;;;;20.13;11.68;;;2.10;99.90;;;;;;5113463;28;20326;-83
2023/11/27 12:18:50;;;;;;;15.73;10.95;;;2.20;99.90;;;;;;5109834;28;20008;-81
2023/11/27 12:21:22;;;;;;;19.90;13.05;;;2.20;99.90;;;;;;5110188;28;20020;-84
2023/11/27 12:23:51;;;;;;;19.92;12.38;;;2.20;99.90;;;;;;5099613;28;20084;-83
2023/11/27 12:26:24;;;;;;;17.92;10.90;;;2.20;99.90;;;;;;5108400;28;20034;-80
2023/11/27 12:28:54;;;;;;;18.33;10.50;;;2.20;99.90;;;;;;5100895;28;20020;-82
2023/11/27 12:31:21;;;;;;;19.98;10.00;;;2.20;99.90;;;;;;5088770;28;20020;-84
2023/11/27 12:33:48;;;;;;;18.52;11.70;;;2.20;99.90;;;;;;5106981;28;20489;-84
2023/11/27 12:36:20;;;;;;;15.38;9.65;;;2.30;99.90;;;;;;5113120;28;20032;-85
2023/11/27 12:38:52;;;;;;;13.48;8.15;;;2.30;99.90;;;;;;5130930;28;20016;-86
2023/11/27 12:41:31;;;;;;;12.25;7.68;;;2.20;99.90;;;;;;5121045;28;20115;-86
2023/11/27 12:44:13;;;;;;;18.17;8.90;;;2.30;99.90;;;;;;5124966;28;20033;-88
2023/11/27 12:46:43;;;;;;;13.23;7.55;;;2.20;99.90;;;;;;5092014;28;20032;-84